Latest Coastal Weather Observations for Ulladulla

IDN60701

Issued at 8:31 am EDT Saturday 15 December 2018 (issued every 10 minutes, with the page automatically refreshed every 10 minutes)

About coastal observations | Map of coastal stations | Coastal observations for NSW | Marine services | Other Formats
Station Details ID: 069138 Name: ULLADULLA AWS Lat: -35.36 Lon: 150.48 Height: 35.7 m
Data from the previous 72 hours. | See also: Recent months at Ulladulla
Date/Time
EDT
Wind Sea
Height
m
Swell Vis
km
Cloud Weather Temp
°C
Press
hPa
Rain since
9am
mm
Dir  Spd
kts
Gust
kts
Height
m
Period
s
Dir
15/08:00am WSW 1 3 - - - - - - - 21.3 1006.8 16.6
15/07:30am WSW 2 3 - - - - - - - 20.9 1006.6 16.6
15/07:00am SW 3 4 - - - - - - - 20.2 1005.9 16.6
15/06:30am SW 3 5 - - - - - - - 20.0 1005.6 16.6
15/06:00am SW 4 6 - - - - - - - 20.1 1005.3 16.6
15/05:30am SW 4 7 - - - - - - - 19.7 1005.1 16.6
15/05:00am SSW 4 5 - - - - - - - 19.5 1004.8 16.6
15/04:30am SW 4 6 - - - - - - - 19.9 1004.5 16.6
15/04:00am SSW 4 7 - - - - - - - 19.5 1004.3 15.8
15/03:30am SW 6 8 - - - - - - - 19.8 1004.7 15.0
15/03:00am SSW 6 7 - - - - - - - 19.4 1004.9 15.0
15/02:30am SSW 5 7 - - - - - - - 19.6 1005.0 15.0
15/02:00am SSW 3 6 - - - - - - - 20.1 1005.1 15.0
15/01:30am SW 3 5 - - - - - - - 20.2 1005.4 14.2
15/01:00am SSW 4 5 - - - - - - - 20.4 1005.4 13.8
15/12:30am SW 2 5 - - - - - - - 20.4 1005.6 13.8
15/12:00am SW 3 5 - - - - - - - 20.4 1005.3 13.4
 
Date/Time
EDT
Wind Sea
Height
m
Swell Vis
km
Cloud Weather Temp
°C
Press
hPa
Rain since
9am
mm
Dir  Spd
kts
Gust
kts
Height
m
Period
s
Dir
14/11:30pm SSW 3 6 - - - - - - - 20.3 1006.0 13.4
14/11:00pm SSW 2 4 - - - - - - - 20.5 1006.2 13.4
14/10:30pm CALM 0 0 - - - - - - - 20.8 1006.4 13.2
14/10:00pm NW 1 2 - - - - - - - 20.7 1006.3 13.0
14/09:30pm SW 1 4 - - - - - - - 20.3 1006.1 11.8
14/09:00pm SW 1 3 - - - - - - - 20.2 1005.8 11.6
14/08:30pm SSW 2 3 - - - - - - - 20.5 1005.5 11.6
14/08:00pm WSW 2 3 - - - - - - - 20.6 1005.5 11.6
14/07:30pm SE 2 3 - - - - - - - 20.5 1005.8 11.4
14/07:00pm CALM 0 0 - - - - - - - 20.6 1005.1 11.2
14/06:30pm N 4 8 - - - - - - - 20.7 1005.6 9.6
14/06:00pm ENE 3 6 - - - - - - Rain 21.4 1004.5 8.8
14/05:30pm SW 1 5 - - - - - - - 20.8 1004.2 8.6
14/05:00pm SSW 1 3 - - - - - - - 21.2 1004.2 8.6
14/04:30pm SW 2 3 - - - - - - - 20.9 1004.0 7.4
14/04:00pm S 2 4 - - - - - - - 21.4 1003.8 6.4
14/03:30pm SSW 4 6 - - - - - - - 21.5 1003.0 6.4
14/03:00pm SSW 4 7 - - - - - - Recent precip. 21.3 1003.4 6.4
14/02:30pm S 3 6 - - - - - - - 21.3 1003.7 6.4
14/02:00pm SSE 6 11 - - - - - - - 19.8 1003.9 5.6
14/01:30pm SSW 5 6 - - - - - - - 19.9 1004.1 0.8
14/01:00pm SSW 3 5 - - - - - - - 20.4 1004.2 0.0
14/12:30pm S 6 9 - - - - - - - 20.6 1003.4 0.0
14/12:00pm SSW 5 7 - - - - - - - 22.3 1003.6 0.0
14/11:30am SSW 4 7 - - - - - - - 21.2 1003.7 0.0
14/11:00am S 4 6 - - - - - - - 21.9 1003.4 0.0
14/10:30am S 6 9 - - - - - - - 20.8 1002.9 0.0
14/10:00am SSW 8 12 - - - - - - - 20.8 1003.3 0.0
14/09:30am SSW 5 7 - - - - - - - 21.5 1002.9 0.0
14/09:00am SW 4 6 - - - - - - - 21.0 1003.1 15.0
14/08:30am WSW 3 6 - - - - - - - 20.2 1003.3 15.0
14/08:00am SSW 4 6 - - - - - - - 19.9 1002.5 15.0
14/07:30am SW 3 5 - - - - - - - 19.6 1002.7 15.0
14/07:00am SW 3 4 - - - - - - - 19.5 1002.6 15.0
14/06:30am WSW 3 6 - - - - - - - 18.8 1002.1 15.0
14/06:00am SSW 6 8 - - - - - - - 18.4 1000.6 15.0
14/05:30am SSW 3 5 - - - - - - - 18.6 1001.4 15.0
14/05:00am SSW 3 4 - - - - - - - 18.6 1001.1 15.0
14/04:30am W 3 4 - - - - - - - 19.2 1001.8 15.0
14/04:00am WNW 1 2 - - - - - - - 18.8 1001.4 15.0
14/03:30am SSW 1 2 - - - - - - - 18.8 1000.9 15.0
14/03:00am CALM 0 1 - - - - - - - 18.8 1000.8 15.0
14/02:30am S 2 3 - - - - - - - 18.5 1000.6 15.0
14/02:00am SSE 1 2 - - - - - - - 18.4 1000.4 15.0
14/01:30am WSW 2 3 - - - - - - - 18.9 1000.4 15.0
14/01:00am W 3 6 - - - - - - - 18.6 1000.8 15.0
14/12:30am NW 1 3 - - - - - - - 18.2 1000.5 15.0
14/12:00am CALM 0 0 - - - - - - - 18.4 1000.9 15.0
 
Date/Time
EDT
Wind Sea
Height
m
Swell Vis
km
Cloud Weather Temp
°C
Press
hPa
Rain since
9am
mm
Dir  Spd
kts
Gust
kts
Height
m
Period
s
Dir
13/11:30pm CALM 0 0 - - - - - - - 18.9 1001.0 15.0
13/11:00pm N 2 5 - - - - - - - 19.4 1001.2 15.0
13/10:30pm N 4 6 - - - - - - - 19.1 1001.1 15.0
13/10:00pm NNW 3 5 - - - - - - - 19.1 1001.3 15.0
13/09:30pm NW 3 6 - - - - - - - 19.6 1000.1 15.0
13/09:00pm SSW 7 13 - - - - - - Rain 19.3 999.3 14.8
13/08:40pm ESE 5 12 - - - - - - - 19.5 998.7 13.8
13/08:30pm N 2 3 - - - - - - - 20.1 1000.8 13.0
13/08:00pm NW 6 11 - - - - - - - 20.9 1000.9 10.6
13/07:30pm NNW 7 11 - - - - - - - 21.6 999.3 8.4
13/07:00pm N 7 10 - - - - - - - 21.4 998.3 8.4
13/06:30pm N 5 9 - - - - - - - 21.7 998.3 8.4
13/06:00pm NNW 7 14 - - - - - - Recent precip. 21.4 998.3 8.4
13/05:30pm NE 6 15 - - - - - - - 20.3 996.6 8.4
13/05:18pm NE 6 12 - - - - - - - 20.6 996.9 8.2
13/05:00pm N 11 17 - - - - - - - 21.5 999.0 7.8
13/04:30pm N 5 8 - - - - - - - 20.8 999.1 7.8
13/04:00pm NNW 5 9 - - - - - - - 21.0 999.1 7.8
13/03:30pm N 8 12 - - - - - - - 20.9 998.9 7.8
13/03:00pm NNE 7 12 - - - - - - - 21.1 999.4 7.8
13/02:30pm NE 3 9 - - - - - - - 21.3 1000.2 7.8
13/02:00pm NE 4 10 - - - - - - - 20.9 1000.2 7.8
13/01:30pm NE 5 8 - - - - - - - 20.4 1000.3 7.8
13/01:00pm NE 9 15 - - - - - - - 20.2 1000.6 7.8
13/12:30pm NNW 1 4 - - - - - - - 19.9 1001.0 5.4
13/12:00pm NNE 3 5 - - - - - - Rain 20.3 1001.1 3.4
13/11:30am NNE 5 10 - - - - - - - 19.9 1001.1 2.8
13/11:00am NNW 3 6 - - - - - - - 20.5 1001.9 2.0
13/10:30am N 6 8 - - - - - - - 20.4 1002.1 0.8
13/10:00am N 4 5 - - - - - - - 20.4 1002.5 0.6
13/09:30am N 2 4 - - - - - - - 19.9 1003.2 0.4
13/09:00am N 4 6 - - - - - - - 20.1 1003.7 2.0
13/08:30am N 6 8 - - - - - - - 20.1 1003.9 -
13/08:00am N 6 9 - - - - - - - 20.0 1004.1 -
13/07:30am N 2 5 - - - - - - - 19.9 1003.7 -
13/07:00am N 3 5 - - - - - - - 19.7 1003.9 -
13/06:30am N 3 7 - - - - - - - 19.7 1004.0 -
13/06:00am N 6 9 - - - - - - Recent precip. 19.5 1004.2 -
13/05:30am N 2 5 - - - - - - - 19.6 1004.1 -
13/05:00am N 1 3 - - - - - - - 19.4 1004.5 -
13/04:30am N 1 3 - - - - - - - 19.6 1005.0 -
13/04:00am N 1 4 - - - - - - - 19.5 1005.5 -
13/03:30am NNW 3 5 - - - - - - - 19.8 1006.1 -
13/03:00am NNE 2 4 - - - - - - - 19.8 1006.5 0.0
13/02:30am NNE 4 7 - - - - - - - 19.7 1006.4 -
13/02:00am NNE 3 6 - - - - - - - 19.7 1006.7 -
13/01:30am N 3 7 - - - - - - - 19.7 1007.0 -
13/01:00am N 1 3 - - - - - - - 19.7 1007.5 -
13/12:30am NE 7 11 - - - - - - - 19.9 1008.2 -
13/12:00am NE 7 11 - - - - - - - 19.9 1008.8 -
 
Date/Time
EDT
Wind Sea
Height
m
Swell Vis
km
Cloud Weather Temp
°C
Press
hPa
Rain since
9am
mm
Dir  Spd
kts
Gust
kts
Height
m
Period
s
Dir
12/11:30pm NE 6 10 - - - - - - - 20.1 1009.4 -
12/11:00pm N 4 7 - - - - - - - 20.1 1009.8 -
12/10:30pm N 3 7 - - - - - - - 20.0 1010.0 -
12/10:00pm N 3 5 - - - - - - - 20.0 1009.8 -
12/09:30pm N 4 9 - - - - - - - 19.9 1009.5 -
12/09:00pm NNE 4 8 - - - - - - - 19.9 1009.2 0.0
12/08:30pm N 4 8 - - - - - - - 19.9 1009.4 -
12/08:00pm NNE 6 13 - - - - - - - 20.1 1009.5 -
12/07:30pm NE 9 15 - - - - - - - 20.3 1009.8 -
12/07:00pm NE 10 18 - - - - - - - 20.5 1009.9 -
12/06:30pm NE 12 19 - - - - - - - 20.5 1010.1 -
12/06:00pm NE 11 17 - - - - - - - 20.5 1010.1 -
12/05:30pm NE 12 18 - - - - - - - 20.6 1010.1 -
12/05:00pm NE 13 18 - - - - - - - 20.9 1010.3 -
12/04:30pm NNE 12 17 - - - - - - - 21.1 1010.7 -
12/04:00pm NNE 10 16 - - - - - - - 21.0 1011.3 -
12/03:30pm NNE 10 16 - - - - - - - 21.7 1011.6 -
12/03:00pm NE 9 14 - - - - - - - 21.5 1012.1 -
12/02:30pm NE 10 15 - - - - - - - 21.4 1012.6 -
12/02:00pm NE 9 14 - - - - - - - 21.3 1013.0 -
12/01:30pm NNE 8 12 - - - - - - - 21.3 1013.6 -
12/01:00pm NNE 8 12 - - - - - - - 21.2 1013.8 -
12/12:30pm NNE 8 11 - - - - - - - 20.1 1014.4 -
12/11:00am NNE 6 10 - - - - - - - 20.3 1015.6 0.0
12/10:30am NE 4 8 - - - - - - - 21.1 1015.9 0.0
12/10:00am NNE 6 13 - - - - - - - 21.1 1016.0 0.0
12/09:30am NE 5 7 - - - - - - - 20.6 1016.2 0.0
12/09:00am NNE 3 6 - - - - - - - 20.5 1016.6 -

Other Formats:

Comma delimited format used in spreadsheet applications
http://www.bom.gov.au/fwo/IDN60701/IDN60701.94938.axf

JavaScript Object Notation format (JSON) in row-major order
http://www.bom.gov.au/fwo/IDN60701/IDN60701.94938.json